sensor_id;sensor_type;location;lat;lon;timestamp;P1;durP1;ratioP1;P2;durP2;ratioP2
7841;SDS011;3966;51.052;13.820;2022-08-19T00:00:49;14.15;;;9.43;;
7841;SDS011;3966;51.052;13.820;2022-08-19T00:03:15;15.85;;;8.52;;
7841;SDS011;3966;51.052;13.820;2022-08-19T00:05:40;12.30;;;8.85;;
7841;SDS011;3966;51.052;13.820;2022-08-19T00:08:06;15.65;;;9.20;;
7841;SDS011;3966;51.052;13.820;2022-08-19T00:10:32;10.52;;;9.30;;
7841;SDS011;3966;51.052;13.820;2022-08-19T00:12:58;17.42;;;9.27;;
7841;SDS011;3966;51.052;13.820;2022-08-19T00:15:24;13.85;;;9.85;;
7841;SDS011;3966;51.052;13.820;2022-08-19T00:17:50;12.80;;;9.25;;
7841;SDS011;3966;51.052;13.820;2022-08-19T00:20:16;15.50;;;9.93;;
7841;SDS011;3966;51.052;13.820;2022-08-19T00:22:44;14.30;;;10.27;;
7841;SDS011;3966;51.052;13.820;2022-08-19T00:25:10;14.05;;;10.60;;
7841;SDS011;3966;51.052;13.820;2022-08-19T00:27:37;12.07;;;9.98;;
7841;SDS011;3966;51.052;13.820;2022-08-19T00:30:03;16.45;;;12.25;;
7841;SDS011;3966;51.052;13.820;2022-08-19T00:32:30;15.68;;;11.20;;
7841;SDS011;3966;51.052;13.820;2022-08-19T00:34:56;14.90;;;10.63;;
7841;SDS011;3966;51.052;13.820;2022-08-19T00:37:21;14.05;;;10.20;;
7841;SDS011;3966;51.052;13.820;2022-08-19T00:39:48;13.90;;;10.88;;
7841;SDS011;3966;51.052;13.820;2022-08-19T00:42:16;12.35;;;10.20;;
7841;SDS011;3966;51.052;13.820;2022-08-19T00:44:41;18.88;;;10.82;;
7841;SDS011;3966;51.052;13.820;2022-08-19T00:47:08;15.80;;;10.43;;
7841;SDS011;3966;51.052;13.820;2022-08-19T00:49:35;15.60;;;12.13;;
7841;SDS011;3966;51.052;13.820;2022-08-19T00:52:06;18.15;;;11.68;;
7841;SDS011;3966;51.052;13.820;2022-08-19T00:54:35;16.85;;;11.68;;
7841;SDS011;3966;51.052;13.820;2022-08-19T00:57:03;17.60;;;12.25;;
7841;SDS011;3966;51.052;13.820;2022-08-19T00:59:33;16.23;;;11.45;;
7841;SDS011;3966;51.052;13.820;2022-08-19T01:02:01;18.58;;;12.35;;
7841;SDS011;3966;51.052;13.820;2022-08-19T01:04:28;15.85;;;11.10;;
7841;SDS011;3966;51.052;13.820;2022-08-19T01:06:53;15.45;;;11.18;;
7841;SDS011;3966;51.052;13.820;2022-08-19T01:09:20;18.10;;;12.20;;
7841;SDS011;3966;51.052;13.820;2022-08-19T01:11:45;18.48;;;11.65;;
7841;SDS011;3966;51.052;13.820;2022-08-19T01:14:12;18.70;;;11.90;;
7841;SDS011;3966;51.052;13.820;2022-08-19T01:16:39;19.80;;;12.73;;
7841;SDS011;3966;51.052;13.820;2022-08-19T01:19:10;18.58;;;12.52;;
7841;SDS011;3966;51.052;13.820;2022-08-19T01:21:47;23.95;;;12.27;;
7841;SDS011;3966;51.052;13.820;2022-08-19T01:24:18;17.98;;;13.32;;
7841;SDS011;3966;51.052;13.820;2022-08-19T01:26:44;17.75;;;12.23;;
7841;SDS011;3966;51.052;13.820;2022-08-19T01:29:11;17.58;;;12.70;;
7841;SDS011;3966;51.052;13.820;2022-08-19T01:31:37;16.63;;;12.85;;
7841;SDS011;3966;51.052;13.820;2022-08-19T01:34:04;18.20;;;13.05;;
7841;SDS011;3966;51.052;13.820;2022-08-19T01:36:31;18.05;;;13.38;;
7841;SDS011;3966;51.052;13.820;2022-08-19T01:39:04;17.95;;;13.00;;
7841;SDS011;3966;51.052;13.820;2022-08-19T01:41:31;18.65;;;13.10;;
7841;SDS011;3966;51.052;13.820;2022-08-19T01:43:57;20.55;;;13.45;;
7841;SDS011;3966;51.052;13.820;2022-08-19T01:46:23;19.02;;;12.38;;
7841;SDS011;3966;51.052;13.820;2022-08-19T01:48:49;17.50;;;12.73;;
7841;SDS011;3966;51.052;13.820;2022-08-19T01:51:14;17.02;;;13.75;;
7841;SDS011;3966;51.052;13.820;2022-08-19T01:53:40;18.50;;;13.63;;
7841;SDS011;3966;51.052;13.820;2022-08-19T01:56:06;22.33;;;13.95;;
7841;SDS011;3966;51.052;13.820;2022-08-19T01:58:40;18.42;;;12.95;;
7841;SDS011;3966;51.052;13.820;2022-08-19T02:01:10;19.05;;;13.00;;
7841;SDS011;3966;51.052;13.820;2022-08-19T02:03:35;19.17;;;13.32;;
7841;SDS011;3966;51.052;13.820;2022-08-19T02:06:01;19.50;;;12.45;;
7841;SDS011;3966;51.052;13.820;2022-08-19T02:08:28;22.17;;;13.63;;
7841;SDS011;3966;51.052;13.820;2022-08-19T02:10:54;19.70;;;13.57;;
7841;SDS011;3966;51.052;13.820;2022-08-19T02:13:20;17.63;;;13.02;;
7841;SDS011;3966;51.052;13.820;2022-08-19T02:15:46;19.70;;;13.35;;
7841;SDS011;3966;51.052;13.820;2022-08-19T02:18:12;17.83;;;13.10;;
7841;SDS011;3966;51.052;13.820;2022-08-19T02:20:38;18.75;;;13.55;;
7841;SDS011;3966;51.052;13.820;2022-08-19T02:23:05;19.45;;;12.88;;
7841;SDS011;3966;51.052;13.820;2022-08-19T02:25:31;17.58;;;13.50;;
7841;SDS011;3966;51.052;13.820;2022-08-19T02:27:57;20.35;;;12.95;;
7841;SDS011;3966;51.052;13.820;2022-08-19T02:30:23;21.63;;;13.88;;
7841;SDS011;3966;51.052;13.820;2022-08-19T02:32:49;14.98;;;12.60;;
7841;SDS011;3966;51.052;13.820;2022-08-19T02:35:16;18.42;;;12.85;;
7841;SDS011;3966;51.052;13.820;2022-08-19T02:37:42;17.05;;;11.90;;
7841;SDS011;3966;51.052;13.820;2022-08-19T02:40:27;19.65;;;13.48;;
7841;SDS011;3966;51.052;13.820;2022-08-19T02:42:53;20.52;;;13.40;;
7841;SDS011;3966;51.052;13.820;2022-08-19T02:45:19;20.30;;;13.68;;
7841;SDS011;3966;51.052;13.820;2022-08-19T02:47:45;18.08;;;12.55;;
7841;SDS011;3966;51.052;13.820;2022-08-19T02:50:11;18.48;;;14.02;;
7841;SDS011;3966;51.052;13.820;2022-08-19T02:52:37;16.90;;;12.60;;
7841;SDS011;3966;51.052;13.820;2022-08-19T02:55:03;20.67;;;13.65;;
7841;SDS011;3966;51.052;13.820;2022-08-19T02:57:29;17.98;;;12.95;;
7841;SDS011;3966;51.052;13.820;2022-08-19T02:59:56;21.75;;;13.90;;
7841;SDS011;3966;51.052;13.820;2022-08-19T03:02:22;19.35;;;13.13;;
7841;SDS011;3966;51.052;13.820;2022-08-19T03:04:47;19.17;;;13.60;;
7841;SDS011;3966;51.052;13.820;2022-08-19T03:07:13;22.50;;;13.82;;
7841;SDS011;3966;51.052;13.820;2022-08-19T03:09:40;18.15;;;14.23;;
7841;SDS011;3966;51.052;13.820;2022-08-19T03:12:08;20.75;;;14.27;;
7841;SDS011;3966;51.052;13.820;2022-08-19T03:14:35;20.30;;;14.10;;
7841;SDS011;3966;51.052;13.820;2022-08-19T03:17:01;22.33;;;14.48;;
7841;SDS011;3966;51.052;13.820;2022-08-19T03:19:29;19.40;;;14.20;;
7841;SDS011;3966;51.052;13.820;2022-08-19T03:21:54;20.83;;;15.63;;
7841;SDS011;3966;51.052;13.820;2022-08-19T03:24:20;23.02;;;14.45;;
7841;SDS011;3966;51.052;13.820;2022-08-19T03:26:47;22.30;;;13.85;;
7841;SDS011;3966;51.052;13.820;2022-08-19T03:29:15;20.17;;;14.10;;
7841;SDS011;3966;51.052;13.820;2022-08-19T03:31:42;23.17;;;15.10;;
7841;SDS011;3966;51.052;13.820;2022-08-19T03:34:13;19.73;;;14.05;;
7841;SDS011;3966;51.052;13.820;2022-08-19T03:36:42;23.70;;;14.75;;
7841;SDS011;3966;51.052;13.820;2022-08-19T03:39:07;19.58;;;14.95;;
7841;SDS011;3966;51.052;13.820;2022-08-19T03:41:37;24.05;;;14.77;;
7841;SDS011;3966;51.052;13.820;2022-08-19T03:44:05;21.45;;;15.25;;
7841;SDS011;3966;51.052;13.820;2022-08-19T03:46:32;23.77;;;15.57;;
7841;SDS011;3966;51.052;13.820;2022-08-19T03:48:59;21.23;;;15.30;;
7841;SDS011;3966;51.052;13.820;2022-08-19T03:51:29;21.85;;;14.10;;
7841;SDS011;3966;51.052;13.820;2022-08-19T03:53:56;23.58;;;14.98;;
7841;SDS011;3966;51.052;13.820;2022-08-19T03:56:23;21.55;;;16.00;;
7841;SDS011;3966;51.052;13.820;2022-08-19T03:58:50;20.92;;;14.98;;
7841;SDS011;3966;51.052;13.820;2022-08-19T04:01:18;22.00;;;16.20;;
7841;SDS011;3966;51.052;13.820;2022-08-19T04:03:46;19.58;;;14.65;;
7841;SDS011;3966;51.052;13.820;2022-08-19T04:06:17;26.30;;;16.65;;
7841;SDS011;3966;51.052;13.820;2022-08-19T04:08:43;22.73;;;15.38;;
7841;SDS011;3966;51.052;13.820;2022-08-19T04:11:11;25.77;;;17.67;;
7841;SDS011;3966;51.052;13.820;2022-08-19T04:13:38;24.63;;;16.40;;
7841;SDS011;3966;51.052;13.820;2022-08-19T04:16:04;27.15;;;16.38;;
7841;SDS011;3966;51.052;13.820;2022-08-19T04:18:31;24.13;;;15.73;;
7841;SDS011;3966;51.052;13.820;2022-08-19T04:20:58;25.33;;;16.27;;
7841;SDS011;3966;51.052;13.820;2022-08-19T04:23:24;21.63;;;15.95;;
7841;SDS011;3966;51.052;13.820;2022-08-19T04:25:52;26.00;;;16.73;;
7841;SDS011;3966;51.052;13.820;2022-08-19T04:28:17;22.75;;;16.20;;
7841;SDS011;3966;51.052;13.820;2022-08-19T04:30:44;25.88;;;15.65;;
7841;SDS011;3966;51.052;13.820;2022-08-19T04:33:12;23.60;;;16.08;;
7841;SDS011;3966;51.052;13.820;2022-08-19T04:35:41;22.50;;;16.13;;
7841;SDS011;3966;51.052;13.820;2022-08-19T04:38:10;23.75;;;15.68;;
7841;SDS011;3966;51.052;13.820;2022-08-19T04:40:40;23.75;;;16.38;;
7841;SDS011;3966;51.052;13.820;2022-08-19T04:43:25;19.60;;;14.35;;
7841;SDS011;3966;51.052;13.820;2022-08-19T04:45:51;24.02;;;17.75;;
7841;SDS011;3966;51.052;13.820;2022-08-19T04:48:17;23.25;;;15.90;;
7841;SDS011;3966;51.052;13.820;2022-08-19T04:50:50;28.67;;;16.98;;
7841;SDS011;3966;51.052;13.820;2022-08-19T04:53:22;32.58;;;17.52;;
7841;SDS011;3966;51.052;13.820;2022-08-19T04:55:55;25.15;;;17.33;;
7841;SDS011;3966;51.052;13.820;2022-08-19T04:58:22;25.38;;;17.00;;
7841;SDS011;3966;51.052;13.820;2022-08-19T05:00:49;24.42;;;16.02;;
7841;SDS011;3966;51.052;13.820;2022-08-19T05:03:15;25.02;;;15.60;;
7841;SDS011;3966;51.052;13.820;2022-08-19T05:05:42;25.33;;;17.30;;
7841;SDS011;3966;51.052;13.820;2022-08-19T05:08:09;22.58;;;16.08;;
7841;SDS011;3966;51.052;13.820;2022-08-19T05:10:43;22.83;;;15.90;;
7841;SDS011;3966;51.052;13.820;2022-08-19T05:13:09;24.02;;;16.15;;
7841;SDS011;3966;51.052;13.820;2022-08-19T05:15:35;21.35;;;16.23;;
7841;SDS011;3966;51.052;13.820;2022-08-19T05:18:01;26.27;;;15.85;;
7841;SDS011;3966;51.052;13.820;2022-08-19T05:20:45;21.70;;;15.07;;
7841;SDS011;3966;51.052;13.820;2022-08-19T05:23:29;26.95;;;15.63;;
7841;SDS011;3966;51.052;13.820;2022-08-19T05:25:55;25.77;;;16.17;;
7841;SDS011;3966;51.052;13.820;2022-08-19T05:28:20;22.83;;;15.18;;
7841;SDS011;3966;51.052;13.820;2022-08-19T05:30:46;23.52;;;17.00;;
7841;SDS011;3966;51.052;13.820;2022-08-19T05:33:15;25.23;;;16.92;;
7841;SDS011;3966;51.052;13.820;2022-08-19T05:35:40;24.52;;;16.23;;
7841;SDS011;3966;51.052;13.820;2022-08-19T05:38:06;24.50;;;16.95;;
7841;SDS011;3966;51.052;13.820;2022-08-19T05:40:37;22.38;;;15.65;;
7841;SDS011;3966;51.052;13.820;2022-08-19T05:43:06;24.15;;;16.15;;
7841;SDS011;3966;51.052;13.820;2022-08-19T05:45:37;24.38;;;17.75;;
7841;SDS011;3966;51.052;13.820;2022-08-19T05:48:04;21.90;;;15.98;;
7841;SDS011;3966;51.052;13.820;2022-08-19T05:50:30;23.02;;;16.40;;
7841;SDS011;3966;51.052;13.820;2022-08-19T05:52:55;24.58;;;17.08;;
7841;SDS011;3966;51.052;13.820;2022-08-19T05:55:21;22.77;;;16.88;;
7841;SDS011;3966;51.052;13.820;2022-08-19T05:57:48;23.13;;;16.00;;
7841;SDS011;3966;51.052;13.820;2022-08-19T06:00:14;20.98;;;15.20;;
7841;SDS011;3966;51.052;13.820;2022-08-19T06:02:40;25.88;;;17.05;;
7841;SDS011;3966;51.052;13.820;2022-08-19T06:05:06;25.25;;;15.73;;
7841;SDS011;3966;51.052;13.820;2022-08-19T06:07:34;26.52;;;15.88;;
7841;SDS011;3966;51.052;13.820;2022-08-19T06:10:01;22.02;;;16.20;;
7841;SDS011;3966;51.052;13.820;2022-08-19T06:12:29;23.33;;;16.67;;
7841;SDS011;3966;51.052;13.820;2022-08-19T06:14:59;28.33;;;17.27;;
7841;SDS011;3966;51.052;13.820;2022-08-19T06:17:28;24.45;;;16.65;;
7841;SDS011;3966;51.052;13.820;2022-08-19T06:19:55;24.60;;;15.90;;
7841;SDS011;3966;51.052;13.820;2022-08-19T06:22:20;20.95;;;15.05;;
7841;SDS011;3966;51.052;13.820;2022-08-19T06:24:46;19.33;;;13.90;;
7841;SDS011;3966;51.052;13.820;2022-08-19T06:27:11;23.20;;;15.65;;
7841;SDS011;3966;51.052;13.820;2022-08-19T06:29:37;17.80;;;13.55;;
7841;SDS011;3966;51.052;13.820;2022-08-19T06:32:03;28.42;;;13.63;;
7841;SDS011;3966;51.052;13.820;2022-08-19T06:34:29;17.00;;;12.73;;
7841;SDS011;3966;51.052;13.820;2022-08-19T06:36:57;15.52;;;11.27;;
7841;SDS011;3966;51.052;13.820;2022-08-19T06:39:27;15.20;;;11.13;;
7841;SDS011;3966;51.052;13.820;2022-08-19T06:41:56;14.43;;;10.90;;
7841;SDS011;3966;51.052;13.820;2022-08-19T06:44:24;13.13;;;9.57;;
7841;SDS011;3966;51.052;13.820;2022-08-19T06:46:51;16.58;;;11.77;;
7841;SDS011;3966;51.052;13.820;2022-08-19T06:49:18;13.40;;;10.57;;
7841;SDS011;3966;51.052;13.820;2022-08-19T06:51:44;14.25;;;11.15;;
7841;SDS011;3966;51.052;13.820;2022-08-19T06:54:12;18.00;;;11.60;;
7841;SDS011;3966;51.052;13.820;2022-08-19T06:56:38;16.00;;;10.48;;
7841;SDS011;3966;51.052;13.820;2022-08-19T06:59:08;13.82;;;9.95;;
7841;SDS011;3966;51.052;13.820;2022-08-19T07:01:36;15.13;;;10.88;;
7841;SDS011;3966;51.052;13.820;2022-08-19T07:04:04;16.77;;;11.43;;
7841;SDS011;3966;51.052;13.820;2022-08-19T07:06:33;19.92;;;11.73;;
7841;SDS011;3966;51.052;13.820;2022-08-19T07:09:00;16.88;;;12.07;;
7841;SDS011;3966;51.052;13.820;2022-08-19T07:11:26;19.58;;;12.30;;
7841;SDS011;3966;51.052;13.820;2022-08-19T07:13:51;17.58;;;12.50;;
7841;SDS011;3966;51.052;13.820;2022-08-19T07:16:18;17.80;;;12.38;;
7841;SDS011;3966;51.052;13.820;2022-08-19T07:18:45;20.70;;;12.80;;
7841;SDS011;3966;51.052;13.820;2022-08-19T07:21:14;19.88;;;13.43;;
7841;SDS011;3966;51.052;13.820;2022-08-19T07:23:49;19.85;;;12.93;;
7841;SDS011;3966;51.052;13.820;2022-08-19T07:26:35;21.20;;;13.82;;
7841;SDS011;3966;51.052;13.820;2022-08-19T07:29:04;18.55;;;13.15;;
7841;SDS011;3966;51.052;13.820;2022-08-19T07:31:31;19.00;;;12.57;;
7841;SDS011;3966;51.052;13.820;2022-08-19T07:34:00;19.55;;;13.80;;
7841;SDS011;3966;51.052;13.820;2022-08-19T07:36:28;19.98;;;13.50;;
7841;SDS011;3966;51.052;13.820;2022-08-19T07:38:56;19.50;;;13.65;;
7841;SDS011;3966;51.052;13.820;2022-08-19T07:41:23;22.17;;;13.98;;
7841;SDS011;3966;51.052;13.820;2022-08-19T07:43:50;20.58;;;14.57;;
7841;SDS011;3966;51.052;13.820;2022-08-19T07:46:16;22.52;;;14.38;;
7841;SDS011;3966;51.052;13.820;2022-08-19T07:48:43;24.23;;;14.65;;
7841;SDS011;3966;51.052;13.820;2022-08-19T07:51:13;21.77;;;14.88;;
7841;SDS011;3966;51.052;13.820;2022-08-19T07:53:41;20.75;;;14.10;;
7841;SDS011;3966;51.052;13.820;2022-08-19T07:56:09;19.23;;;14.07;;
7841;SDS011;3966;51.052;13.820;2022-08-19T07:58:36;23.92;;;15.00;;
7841;SDS011;3966;51.052;13.820;2022-08-19T08:01:04;24.45;;;14.55;;
7841;SDS011;3966;51.052;13.820;2022-08-19T08:03:30;24.10;;;16.08;;
7841;SDS011;3966;51.052;13.820;2022-08-19T08:06:15;24.83;;;15.85;;
7841;SDS011;3966;51.052;13.820;2022-08-19T08:09:00;21.47;;;15.10;;
7841;SDS011;3966;51.052;13.820;2022-08-19T08:11:36;27.38;;;16.30;;
7841;SDS011;3966;51.052;13.820;2022-08-19T08:14:03;23.27;;;16.13;;
7841;SDS011;3966;51.052;13.820;2022-08-19T08:16:29;23.85;;;16.35;;
7841;SDS011;3966;51.052;13.820;2022-08-19T08:18:58;26.90;;;16.90;;
7841;SDS011;3966;51.052;13.820;2022-08-19T08:21:28;24.42;;;15.68;;
7841;SDS011;3966;51.052;13.820;2022-08-19T08:23:53;25.33;;;16.33;;
7841;SDS011;3966;51.052;13.820;2022-08-19T08:26:20;29.92;;;17.30;;
7841;SDS011;3966;51.052;13.820;2022-08-19T08:28:45;28.38;;;17.80;;
7841;SDS011;3966;51.052;13.820;2022-08-19T08:31:13;31.77;;;17.95;;
7841;SDS011;3966;51.052;13.820;2022-08-19T08:33:39;27.60;;;18.13;;
7841;SDS011;3966;51.052;13.820;2022-08-19T08:36:07;25.83;;;17.75;;
7841;SDS011;3966;51.052;13.820;2022-08-19T08:38:33;26.20;;;16.05;;
7841;SDS011;3966;51.052;13.820;2022-08-19T08:41:01;23.38;;;16.73;;
7841;SDS011;3966;51.052;13.820;2022-08-19T08:43:44;23.05;;;16.00;;
7841;SDS011;3966;51.052;13.820;2022-08-19T08:46:58;28.17;;;16.95;;
7841;SDS011;3966;51.052;13.820;2022-08-19T08:49:10;22.65;;;16.15;;
7841;SDS011;3966;51.052;13.820;2022-08-19T08:51:54;26.27;;;15.02;;
7841;SDS011;3966;51.052;13.820;2022-08-19T08:54:57;20.85;;;13.95;;
7841;SDS011;3966;51.052;13.820;2022-08-19T08:57:32;24.52;;;14.38;;
7841;SDS011;3966;51.052;13.820;2022-08-19T09:00:03;20.70;;;14.95;;
7841;SDS011;3966;51.052;13.820;2022-08-19T09:02:32;21.20;;;15.02;;
7841;SDS011;3966;51.052;13.820;2022-08-19T09:04:58;17.13;;;13.15;;
7841;SDS011;3966;51.052;13.820;2022-08-19T09:07:26;20.85;;;13.02;;
7841;SDS011;3966;51.052;13.820;2022-08-19T09:15:48;16.42;;;12.20;;
7841;SDS011;3966;51.052;13.820;2022-08-19T09:18:19;18.30;;;11.90;;
7841;SDS011;3966;51.052;13.820;2022-08-19T09:20:45;16.65;;;11.70;;
7841;SDS011;3966;51.052;13.820;2022-08-19T09:23:14;15.43;;;11.57;;
7841;SDS011;3966;51.052;13.820;2022-08-19T09:25:40;17.48;;;12.15;;
7841;SDS011;3966;51.052;13.820;2022-08-19T09:28:06;16.45;;;12.05;;
7841;SDS011;3966;51.052;13.820;2022-08-19T09:30:34;18.95;;;11.73;;
7841;SDS011;3966;51.052;13.820;2022-08-19T09:33:04;17.80;;;12.90;;
7841;SDS011;3966;51.052;13.820;2022-08-19T09:35:30;15.32;;;12.15;;
7841;SDS011;3966;51.052;13.820;2022-08-19T09:37:56;20.67;;;12.70;;
7841;SDS011;3966;51.052;13.820;2022-08-19T09:40:23;14.80;;;12.00;;
7841;SDS011;3966;51.052;13.820;2022-08-19T09:42:50;17.13;;;12.75;;
7841;SDS011;3966;51.052;13.820;2022-08-19T09:45:17;19.40;;;13.00;;
7841;SDS011;3966;51.052;13.820;2022-08-19T09:47:45;18.13;;;12.20;;
7841;SDS011;3966;51.052;13.820;2022-08-19T09:50:11;18.23;;;13.10;;
7841;SDS011;3966;51.052;13.820;2022-08-19T09:52:37;17.20;;;12.27;;
7841;SDS011;3966;51.052;13.820;2022-08-19T09:55:07;19.02;;;12.98;;
7841;SDS011;3966;51.052;13.820;2022-08-19T09:57:34;16.08;;;12.02;;
7841;SDS011;3966;51.052;13.820;2022-08-19T10:00:00;18.50;;;12.32;;
7841;SDS011;3966;51.052;13.820;2022-08-19T10:02:27;15.90;;;11.43;;
7841;SDS011;3966;51.052;13.820;2022-08-19T10:04:53;18.02;;;12.07;;
7841;SDS011;3966;51.052;13.820;2022-08-19T10:07:37;19.10;;;12.18;;
7841;SDS011;3966;51.052;13.820;2022-08-19T10:10:04;17.65;;;12.30;;
7841;SDS011;3966;51.052;13.820;2022-08-19T10:12:31;18.52;;;12.20;;
7841;SDS011;3966;51.052;13.820;2022-08-19T10:14:58;17.15;;;12.43;;
7841;SDS011;3966;51.052;13.820;2022-08-19T10:17:24;15.40;;;10.90;;
7841;SDS011;3966;51.052;13.820;2022-08-19T10:19:50;16.00;;;11.52;;
7841;SDS011;3966;51.052;13.820;2022-08-19T10:22:16;14.10;;;10.75;;
7841;SDS011;3966;51.052;13.820;2022-08-19T10:24:43;15.48;;;11.02;;
7841;SDS011;3966;51.052;13.820;2022-08-19T10:27:08;12.73;;;10.40;;
7841;SDS011;3966;51.052;13.820;2022-08-19T10:29:34;12.68;;;9.43;;
7841;SDS011;3966;51.052;13.820;2022-08-19T10:32:04;11.68;;;9.68;;
7841;SDS011;3966;51.052;13.820;2022-08-19T10:34:32;11.43;;;9.18;;
7841;SDS011;3966;51.052;13.820;2022-08-19T10:36:59;13.45;;;9.07;;
7841;SDS011;3966;51.052;13.820;2022-08-19T10:39:25;10.77;;;8.57;;
7841;SDS011;3966;51.052;13.820;2022-08-19T10:41:54;13.32;;;8.23;;
7841;SDS011;3966;51.052;13.820;2022-08-19T10:44:21;12.95;;;8.27;;
7841;SDS011;3966;51.052;13.820;2022-08-19T10:46:48;8.90;;;7.95;;
7841;SDS011;3966;51.052;13.820;2022-08-19T10:49:13;12.88;;;8.38;;
7841;SDS011;3966;51.052;13.820;2022-08-19T10:51:39;10.10;;;7.68;;
7841;SDS011;3966;51.052;13.820;2022-08-19T10:54:23;9.52;;;8.52;;
7841;SDS011;3966;51.052;13.820;2022-08-19T10:57:10;8.65;;;7.60;;
7841;SDS011;3966;51.052;13.820;2022-08-19T10:59:36;8.95;;;7.90;;
7841;SDS011;3966;51.052;13.820;2022-08-19T11:02:03;11.00;;;8.18;;
7841;SDS011;3966;51.052;13.820;2022-08-19T11:04:29;10.60;;;7.55;;
7841;SDS011;3966;51.052;13.820;2022-08-19T11:06:56;9.57;;;7.57;;
7841;SDS011;3966;51.052;13.820;2022-08-19T11:09:23;9.00;;;7.95;;
7841;SDS011;3966;51.052;13.820;2022-08-19T11:11:50;9.60;;;7.50;;
7841;SDS011;3966;51.052;13.820;2022-08-19T11:14:19;8.45;;;7.50;;
7841;SDS011;3966;51.052;13.820;2022-08-19T11:16:46;8.63;;;7.72;;
7841;SDS011;3966;51.052;13.820;2022-08-19T11:19:13;9.25;;;7.28;;
7841;SDS011;3966;51.052;13.820;2022-08-19T11:21:43;9.20;;;7.38;;
7841;SDS011;3966;51.052;13.820;2022-08-19T11:24:20;8.75;;;7.45;;
7841;SDS011;3966;51.052;13.820;2022-08-19T11:26:48;8.98;;;6.78;;
7841;SDS011;3966;51.052;13.820;2022-08-19T11:29:15;9.80;;;7.03;;
7841;SDS011;3966;51.052;13.820;2022-08-19T11:31:43;8.35;;;6.40;;
7841;SDS011;3966;51.052;13.820;2022-08-19T11:34:15;8.48;;;6.60;;
7841;SDS011;3966;51.052;13.820;2022-08-19T11:36:43;9.60;;;7.63;;
7841;SDS011;3966;51.052;13.820;2022-08-19T11:39:11;9.57;;;7.43;;
7841;SDS011;3966;51.052;13.820;2022-08-19T11:41:39;8.43;;;7.55;;
7841;SDS011;3966;51.052;13.820;2022-08-19T11:44:05;11.63;;;8.57;;
7841;SDS011;3966;51.052;13.820;2022-08-19T11:46:32;11.40;;;9.02;;
7841;SDS011;3966;51.052;13.820;2022-08-19T11:49:02;12.05;;;9.15;;
7841;SDS011;3966;51.052;13.820;2022-08-19T11:51:30;11.35;;;8.70;;
7841;SDS011;3966;51.052;13.820;2022-08-19T11:53:56;12.85;;;9.30;;
7841;SDS011;3966;51.052;13.820;2022-08-19T11:56:23;12.93;;;9.68;;
7841;SDS011;3966;51.052;13.820;2022-08-19T11:58:50;13.27;;;9.98;;
7841;SDS011;3966;51.052;13.820;2022-08-19T12:01:18;11.77;;;9.20;;
7841;SDS011;3966;51.052;13.820;2022-08-19T12:03:46;10.30;;;8.93;;
7841;SDS011;3966;51.052;13.820;2022-08-19T12:06:14;13.82;;;8.80;;
7841;SDS011;3966;51.052;13.820;2022-08-19T12:08:43;10.23;;;8.88;;
7841;SDS011;3966;51.052;13.820;2022-08-19T12:11:10;13.27;;;9.85;;
7841;SDS011;3966;51.052;13.820;2022-08-19T12:13:37;12.52;;;9.45;;
7841;SDS011;3966;51.052;13.820;2022-08-19T12:16:08;15.38;;;9.93;;
7841;SDS011;3966;51.052;13.820;2022-08-19T12:18:37;17.42;;;10.18;;
7841;SDS011;3966;51.052;13.820;2022-08-19T12:21:03;12.63;;;10.18;;
7841;SDS011;3966;51.052;13.820;2022-08-19T12:23:28;18.65;;;11.15;;
7841;SDS011;3966;51.052;13.820;2022-08-19T12:25:54;15.00;;;10.82;;
7841;SDS011;3966;51.052;13.820;2022-08-19T12:28:22;15.98;;;11.43;;
7841;SDS011;3966;51.052;13.820;2022-08-19T12:30:49;17.23;;;12.18;;
7841;SDS011;3966;51.052;13.820;2022-08-19T12:33:16;17.17;;;12.70;;
7841;SDS011;3966;51.052;13.820;2022-08-19T12:35:43;18.52;;;12.18;;
7841;SDS011;3966;51.052;13.820;2022-08-19T12:38:11;22.33;;;14.63;;
7841;SDS011;3966;51.052;13.820;2022-08-19T12:40:37;18.52;;;13.50;;
7841;SDS011;3966;51.052;13.820;2022-08-19T12:43:04;23.75;;;14.88;;
7841;SDS011;3966;51.052;13.820;2022-08-19T12:45:30;27.27;;;15.13;;
7841;SDS011;3966;51.052;13.820;2022-08-19T12:47:56;22.58;;;15.32;;
7841;SDS011;3966;51.052;13.820;2022-08-19T12:50:21;24.23;;;14.48;;
7841;SDS011;3966;51.052;13.820;2022-08-19T12:52:47;24.15;;;14.73;;
7841;SDS011;3966;51.052;13.820;2022-08-19T12:55:13;23.38;;;14.88;;
7841;SDS011;3966;51.052;13.820;2022-08-19T12:57:39;26.40;;;15.93;;
7841;SDS011;3966;51.052;13.820;2022-08-19T13:00:09;21.15;;;14.73;;
7841;SDS011;3966;51.052;13.820;2022-08-19T13:02:38;25.42;;;15.73;;
7841;SDS011;3966;51.052;13.820;2022-08-19T13:05:09;24.10;;;15.40;;
7841;SDS011;3966;51.052;13.820;2022-08-19T13:07:38;25.40;;;15.75;;
7841;SDS011;3966;51.052;13.820;2022-08-19T13:10:09;28.90;;;15.88;;
7841;SDS011;3966;51.052;13.820;2022-08-19T13:12:36;21.95;;;13.75;;
7841;SDS011;3966;51.052;13.820;2022-08-19T13:15:03;20.17;;;13.27;;
7841;SDS011;3966;51.052;13.820;2022-08-19T13:17:28;22.83;;;13.82;;
7841;SDS011;3966;51.052;13.820;2022-08-19T13:19:54;19.90;;;13.73;;
7841;SDS011;3966;51.052;13.820;2022-08-19T13:22:19;18.40;;;12.98;;
7841;SDS011;3966;51.052;13.820;2022-08-19T13:24:45;20.17;;;13.05;;
7841;SDS011;3966;51.052;13.820;2022-08-19T13:27:10;19.65;;;13.48;;
7841;SDS011;3966;51.052;13.820;2022-08-19T13:29:36;20.77;;;13.48;;
7841;SDS011;3966;51.052;13.820;2022-08-19T13:32:20;16.17;;;11.95;;
7841;SDS011;3966;51.052;13.820;2022-08-19T13:35:04;21.60;;;14.38;;
7841;SDS011;3966;51.052;13.820;2022-08-19T13:37:30;19.52;;;13.85;;
7841;SDS011;3966;51.052;13.820;2022-08-19T13:40:08;20.42;;;13.82;;
7841;SDS011;3966;51.052;13.820;2022-08-19T13:42:37;17.88;;;12.95;;
7841;SDS011;3966;51.052;13.820;2022-08-19T13:45:04;25.48;;;15.50;;
7841;SDS011;3966;51.052;13.820;2022-08-19T13:47:31;26.65;;;15.23;;
7841;SDS011;3966;51.052;13.820;2022-08-19T13:49:59;20.23;;;14.77;;
7841;SDS011;3966;51.052;13.820;2022-08-19T13:52:25;26.63;;;16.58;;
7841;SDS011;3966;51.052;13.820;2022-08-19T13:54:50;22.67;;;14.82;;
7841;SDS011;3966;51.052;13.820;2022-08-19T13:57:16;25.98;;;14.30;;
7841;SDS011;3966;51.052;13.820;2022-08-19T13:59:41;24.33;;;15.02;;
7841;SDS011;3966;51.052;13.820;2022-08-19T14:02:07;26.85;;;16.15;;
7841;SDS011;3966;51.052;13.820;2022-08-19T14:04:32;26.30;;;15.95;;
7841;SDS011;3966;51.052;13.820;2022-08-19T14:06:58;23.55;;;15.82;;
7841;SDS011;3966;51.052;13.820;2022-08-19T14:09:23;25.80;;;16.65;;
7841;SDS011;3966;51.052;13.820;2022-08-19T14:11:49;25.77;;;16.42;;
7841;SDS011;3966;51.052;13.820;2022-08-19T14:14:15;25.73;;;15.90;;
7841;SDS011;3966;51.052;13.820;2022-08-19T14:16:41;27.90;;;16.58;;
7841;SDS011;3966;51.052;13.820;2022-08-19T14:19:07;29.17;;;17.27;;
7841;SDS011;3966;51.052;13.820;2022-08-19T14:21:33;26.30;;;16.80;;
7841;SDS011;3966;51.052;13.820;2022-08-19T14:23:59;28.17;;;17.52;;
7841;SDS011;3966;51.052;13.820;2022-08-19T14:26:24;30.45;;;18.83;;
7841;SDS011;3966;51.052;13.820;2022-08-19T14:28:50;32.95;;;19.00;;
7841;SDS011;3966;51.052;13.820;2022-08-19T14:31:17;30.17;;;18.77;;
7841;SDS011;3966;51.052;13.820;2022-08-19T14:33:44;32.08;;;19.13;;
7841;SDS011;3966;51.052;13.820;2022-08-19T14:36:11;27.83;;;17.40;;
7841;SDS011;3966;51.052;13.820;2022-08-19T14:38:37;32.30;;;16.90;;
7841;SDS011;3966;51.052;13.820;2022-08-19T14:41:13;27.45;;;17.67;;
7841;SDS011;3966;51.052;13.820;2022-08-19T14:43:42;26.65;;;17.73;;
7841;SDS011;3966;51.052;13.820;2022-08-19T14:46:11;31.55;;;18.65;;
7841;SDS011;3966;51.052;13.820;2022-08-19T14:48:41;33.05;;;18.92;;